Time;durP1;ratioP1;P1;durP2;ratioP2;P2;SDS_P1;SDS_P2;PMS_P1;PMS_P2;Temp;Humidity;BMP_temperature;BMP_pressure;BME280_temperature;BME280_humidity;BME280_pressure;Samples;Min_cycle;Max_cycle;Signal;HPM_P1;HPM_P2
2022/04/26 03:36:38;;;;;;;7.20;5.32;;;3.70;99.90;;;;;;5030592;28;20039;-54
2022/04/26 03:39:04;;;;;;;7.53;5.40;;;3.60;99.90;;;;;;5029199;28;20068;-50
2022/04/26 03:41:31;;;;;;;9.82;6.40;;;3.60;99.90;;;;;;5030424;28;20028;-52
2022/04/26 03:43:56;;;;;;;7.57;4.95;;;3.60;99.90;;;;;;5031173;28;20041;-55
2022/04/26 03:46:22;;;;;;;10.60;6.18;;;3.60;99.90;;;;;;5030553;28;20029;-52
2022/04/26 03:48:48;;;;;;;10.20;5.35;;;3.60;99.90;;;;;;5031446;28;20040;-51
2022/04/26 03:51:13;;;;;;;7.03;5.10;;;3.60;99.90;;;;;;5045478;28;20491;-52
2022/04/26 03:53:39;;;;;;;9.15;6.55;;;3.60;99.90;;;;;;5030988;28;20041;-52
2022/04/26 03:56:05;;;;;;;8.05;6.85;;;3.60;99.90;;;;;;5030313;28;20025;-52
2022/04/26 03:58:30;;;;;;;9.32;6.13;;;3.70;99.90;;;;;;5031398;28;20057;-53
2022/04/26 04:00:56;;;;;;;12.93;6.20;;;3.70;99.90;;;;;;5045317;28;20248;-51
2022/04/26 04:03:22;;;;;;;12.30;7.30;;;3.70;99.90;;;;;;5045197;28;20033;-51
2022/04/26 04:05:48;;;;;;;9.32;6.50;;;3.80;99.90;;;;;;5049252;28;20527;-51
2022/04/26 04:08:13;;;;;;;10.48;7.03;;;3.90;99.90;;;;;;5049038;28;20064;-52
2022/04/26 04:10:39;;;;;;;7.10;6.03;;;3.90;99.90;;;;;;5049812;28;20029;-54
2022/04/26 04:13:05;;;;;;;10.05;6.93;;;3.90;99.90;;;;;;5048952;28;20487;-52
2022/04/26 04:15:30;;;;;;;9.95;6.55;;;3.90;99.90;;;;;;5034013;28;20049;-53
2022/04/26 04:17:56;;;;;;;9.52;6.75;;;4.00;99.90;;;;;;5029591;28;20033;-53
2022/04/26 04:20:21;;;;;;;10.15;7.03;;;4.00;99.90;;;;;;5029492;28;20030;-53
2022/04/26 04:22:48;;;;;;;8.27;6.60;;;4.10;99.90;;;;;;5030602;28;20033;-51
2022/04/26 04:25:15;;;;;;;11.13;6.97;;;4.10;99.90;;;;;;5041404;28;20098;-50
2022/04/26 04:27:41;;;;;;;12.43;7.50;;;4.10;99.90;;;;;;5049587;28;20120;-51
2022/04/26 04:30:08;;;;;;;8.02;6.07;;;4.10;99.90;;;;;;5049515;28;20021;-51
2022/04/26 04:32:33;;;;;;;12.82;6.75;;;4.10;99.90;;;;;;5049100;28;20028;-51
2022/04/26 04:34:59;;;;;;;11.48;6.90;;;4.10;99.90;;;;;;5019436;28;20033;-52
2022/04/26 04:37:25;;;;;;;8.90;6.70;;;4.10;99.90;;;;;;5029577;28;20061;-53
2022/04/26 04:39:50;;;;;;;10.70;6.90;;;4.20;99.90;;;;;;5038904;28;20037;-53
2022/04/26 04:42:16;;;;;;;9.52;6.45;;;4.20;99.90;;;;;;5049373;28;20511;-54
2022/04/26 04:44:41;;;;;;;8.32;6.25;;;4.20;99.90;;;;;;5040939;28;20087;-53
2022/04/26 04:47:07;;;;;;;9.95;7.20;;;4.30;99.90;;;;;;5029611;28;20043;-51
2022/04/26 04:49:33;;;;;;;14.38;8.73;;;4.30;99.90;;;;;;5011742;28;20036;-53
2022/04/26 04:51:58;;;;;;;9.55;7.50;;;4.40;99.90;;;;;;5029415;28;20051;-56
2022/04/26 04:54:24;;;;;;;11.05;7.95;;;4.40;99.90;;;;;;5041458;28;20029;-55
2022/04/26 04:56:49;;;;;;;9.32;6.88;;;4.50;99.90;;;;;;5029556;28;20021;-51
2022/04/26 04:59:19;;;;;;;9.77;6.82;;;4.50;99.90;;;;;;5030366;28;20056;-53
2022/04/26 05:01:44;;;;;;;11.45;6.72;;;4.50;99.90;;;;;;5028821;28;20026;-55
2022/04/26 05:04:10;;;;;;;10.50;7.00;;;4.50;99.90;;;;;;5029438;28;20370;-50
2022/04/26 05:06:35;;;;;;;13.68;7.47;;;4.50;99.90;;;;;;5029108;28;20022;-50
2022/04/26 05:09:01;;;;;;;11.40;7.38;;;4.50;99.90;;;;;;5029019;28;20029;-51
2022/04/26 05:11:26;;;;;;;14.50;8.00;;;4.50;99.90;;;;;;5032278;28;20025;-53
2022/04/26 05:13:52;;;;;;;10.15;6.95;;;4.60;99.90;;;;;;5029091;28;20029;-55
2022/04/26 05:16:18;;;;;;;10.27;7.07;;;4.60;99.90;;;;;;5028987;28;20029;-56
2022/04/26 05:18:43;;;;;;;14.02;8.77;;;4.60;99.90;;;;;;5029178;28;20076;-53
2022/04/26 05:21:10;;;;;;;12.18;7.60;;;4.70;99.90;;;;;;5029227;28;20537;-54
2022/04/26 05:26:20;;;;;;;10.65;7.75;;;4.80;99.90;;;;;;5029139;28;20094;-51
2022/04/26 05:28:46;;;;;;;11.32;7.47;;;4.90;99.90;;;;;;5028593;28;20033;-53
2022/04/26 05:31:12;;;;;;;10.18;7.40;;;4.90;99.90;;;;;;5028199;28;20017;-54
2022/04/26 05:33:38;;;;;;;9.48;7.15;;;5.10;99.90;;;;;;5028727;28;20053;-52
2022/04/26 05:36:04;;;;;;;9.52;7.53;;;5.10;99.90;;;;;;5028977;28;20029;-51
2022/04/26 05:38:29;;;;;;;11.45;7.55;;;5.20;99.90;;;;;;5026534;28;20409;-50
2022/04/26 05:40:55;;;;;;;10.27;7.10;;;5.20;99.90;;;;;;5030561;28;20045;-53
2022/04/26 05:43:20;;;;;;;9.80;6.25;;;5.30;99.90;;;;;;5040092;28;20073;-53
2022/04/26 05:45:46;;;;;;;10.20;7.00;;;5.30;99.90;;;;;;5028726;28;20444;-52
2022/04/26 05:48:13;;;;;;;8.00;6.22;;;5.40;99.90;;;;;;5028804;28;20644;-51
2022/04/26 05:50:39;;;;;;;8.73;7.28;;;5.50;99.90;;;;;;5029878;28;20481;-54
2022/04/26 05:53:05;;;;;;;7.70;6.13;;;5.60;99.90;;;;;;5027939;28;20037;-53
2022/04/26 05:55:31;;;;;;;8.75;6.05;;;5.70;99.90;;;;;;5028584;28;20095;-53
2022/04/26 05:57:56;;;;;;;8.88;6.30;;;5.80;99.90;;;;;;5028908;28;20029;-53
2022/04/26 06:00:22;;;;;;;10.85;7.43;;;6.00;99.90;;;;;;5036519;28;20064;-54
2022/04/26 06:02:49;;;;;;;10.48;6.38;;;6.10;99.90;;;;;;5052305;28;20059;-51
2022/04/26 06:05:14;;;;;;;12.60;8.13;;;6.20;99.90;;;;;;5050906;28;20031;-56
2022/04/26 06:07:40;;;;;;;8.90;6.63;;;6.30;99.90;;;;;;5046481;28;20041;-51
2022/04/26 06:10:06;;;;;;;8.75;7.03;;;6.40;99.90;;;;;;5052128;28;20032;-54
2022/04/26 06:12:31;;;;;;;9.10;6.53;;;6.50;99.90;;;;;;5052013;28;20500;-51
2022/04/26 06:14:59;;;;;;;11.68;6.25;;;6.70;99.90;;;;;;5048432;28;20064;-52
2022/04/26 06:17:24;;;;;;;9.57;6.95;;;6.80;99.90;;;;;;5034142;28;20504;-54
2022/04/26 06:19:50;;;;;;;8.02;6.40;;;7.00;99.90;;;;;;5034023;28;20037;-50
2022/04/26 06:22:16;;;;;;;11.80;7.20;;;7.20;99.90;;;;;;5035839;28;20044;-52
2022/04/26 06:24:42;;;;;;;7.18;6.20;;;7.50;99.90;;;;;;5031333;28;20029;-52
2022/04/26 06:27:08;;;;;;;9.15;6.20;;;7.70;99.90;;;;;;5047110;28;20044;-52
2022/04/26 06:29:33;;;;;;;7.45;6.35;;;7.80;99.90;;;;;;5012113;28;20037;-52
2022/04/26 06:31:59;;;;;;;6.88;6.15;;;8.00;99.90;;;;;;5011682;28;20105;-52
2022/04/26 06:34:25;;;;;;;8.43;6.22;;;8.10;99.90;;;;;;5012076;28;20026;-53
2022/04/26 06:36:50;;;;;;;8.18;5.50;;;8.30;99.90;;;;;;4994550;28;20034;-52
2022/04/26 06:39:16;;;;;;;8.40;5.55;;;8.30;99.90;;;;;;5012110;28;20053;-51
2022/04/26 06:41:42;;;;;;;7.55;6.07;;;8.40;99.90;;;;;;5011801;28;20083;-54
2022/04/26 06:44:07;;;;;;;6.65;5.28;;;8.50;99.90;;;;;;5011958;28;20026;-49
2022/04/26 06:46:36;;;;;;;6.93;5.47;;;8.60;99.90;;;;;;5012076;28;20038;-50
2022/04/26 06:49:02;;;;;;;8.05;5.60;;;8.80;99.90;;;;;;4994136;28;20474;-54
2022/04/26 06:51:30;;;;;;;8.52;4.80;;;8.90;99.90;;;;;;5011535;28;20034;-54
2022/04/26 06:53:56;;;;;;;7.05;5.45;;;9.10;99.90;;;;;;5011170;28;20029;-52
2022/04/26 06:56:21;;;;;;;5.88;4.78;;;9.10;99.90;;;;;;5017012;28;20040;-50
2022/04/26 06:58:47;;;;;;;8.10;5.05;;;9.20;99.90;;;;;;5049498;28;20043;-54
2022/04/26 07:01:13;;;;;;;8.55;5.20;;;9.20;99.90;;;;;;5018910;28;20025;-54
2022/04/26 07:03:38;;;;;;;8.77;5.57;;;9.30;99.90;;;;;;5051067;28;20035;-53
2022/04/26 07:06:04;;;;;;;10.20;5.65;;;9.40;99.90;;;;;;5031176;28;20112;-57
2022/04/26 07:08:29;;;;;;;5.43;4.63;;;9.50;99.90;;;;;;5042268;28;20064;-51
2022/04/26 07:10:55;;;;;;;7.68;5.43;;;9.60;99.90;;;;;;5047587;28;20040;-52
2022/04/26 07:13:22;;;;;;;7.07;5.43;;;9.60;99.90;;;;;;5046963;28;20033;-53
2022/04/26 07:15:47;;;;;;;7.78;5.45;;;9.60;99.90;;;;;;5031062;28;20455;-51
2022/04/26 07:18:14;;;;;;;6.70;4.90;;;9.70;99.90;;;;;;5041226;28;20040;-52
2022/04/26 07:20:40;;;;;;;6.05;5.07;;;9.80;99.90;;;;;;5045108;28;20097;-52
2022/04/26 07:23:07;;;;;;;5.45;4.72;;;9.90;99.90;;;;;;5030936;28;20030;-50
2022/04/26 07:25:33;;;;;;;6.50;4.80;;;10.10;99.90;;;;;;5031828;28;20033;-53
2022/04/26 07:27:59;;;;;;;6.43;5.35;;;10.20;99.90;;;;;;5050327;28;20032;-53
2022/04/26 07:30:34;;;;;;;6.88;4.68;;;10.30;99.90;;;;;;5047029;28;20026;-53
2022/04/26 07:35:48;;;;;;;5.38;4.63;;;10.70;99.90;;;;;;5036852;28;20099;-53
2022/04/26 07:38:14;;;;;;;6.55;4.85;;;10.80;99.90;;;;;;5050541;28;20048;-52
2022/04/26 07:40:39;;;;;;;5.93;4.35;;;11.00;99.90;;;;;;5048793;28;20025;-53
2022/04/26 07:43:05;;;;;;;6.13;4.07;;;11.20;99.90;;;;;;5050101;28;20031;-54
2022/04/26 07:45:31;;;;;;;12.88;5.65;;;11.30;99.90;;;;;;5045579;28;20032;-54
2022/04/26 07:47:58;;;;;;;5.07;4.38;;;11.20;99.90;;;;;;5031382;28;20029;-55
2022/04/26 07:50:24;;;;;;;5.43;4.32;;;11.20;99.90;;;;;;5040947;28;20631;-55
2022/04/26 07:52:50;;;;;;;7.80;4.78;;;11.30;99.90;;;;;;5035160;28;20040;-53
2022/04/26 07:55:15;;;;;;;4.30;3.88;;;11.50;99.90;;;;;;5037337;28;20022;-49
2022/04/26 07:57:41;;;;;;;5.43;4.43;;;11.50;99.90;;;;;;5033687;28;20083;-52
2022/04/26 08:00:07;;;;;;;4.72;4.22;;;11.70;99.90;;;;;;5049343;28;20025;-52
2022/04/26 08:02:33;;;;;;;6.65;4.78;;;12.00;99.90;;;;;;5028099;28;20047;-52
2022/04/26 08:05:01;;;;;;;5.35;4.40;;;12.30;99.90;;;;;;5030502;28;20021;-52
2022/04/26 08:07:28;;;;;;;5.93;4.78;;;12.50;99.90;;;;;;5030516;28;20114;-49
2022/04/26 08:09:55;;;;;;;5.78;4.82;;;12.70;99.90;;;;;;5030133;28;20473;-53
2022/04/26 08:12:21;;;;;;;5.75;4.40;;;12.80;98.90;;;;;;5032836;28;20072;-52
2022/04/26 08:14:47;;;;;;;5.63;4.75;;;12.90;99.10;;;;;;5049843;28;20049;-54
2022/04/26 08:17:15;;;;;;;4.57;4.07;;;13.10;98.40;;;;;;5049722;28;20033;-53
2022/04/26 08:19:43;;;;;;;5.97;4.30;;;13.20;98.30;;;;;;5049929;28;20108;-53
2022/04/26 08:22:09;;;;;;;5.38;4.43;;;13.50;99.90;;;;;;5039195;28;20021;-57
2022/04/26 08:27:33;;;;;;;6.13;4.15;;;13.50;96.00;;;;;;4995746;28;20084;-54
2022/04/26 08:30:03;;;;;;;4.93;4.22;;;13.80;95.90;;;;;;5030485;28;20026;-54
2022/04/26 08:32:47;;;;;;;5.30;4.25;;;14.00;96.40;;;;;;5028136;28;20493;-55
2022/04/26 08:35:15;;;;;;;6.75;4.07;;;14.10;94.20;;;;;;5027907;28;20443;-54
2022/04/26 08:37:43;;;;;;;3.83;3.20;;;13.70;92.30;;;;;;5029927;28;20025;-53
2022/04/26 08:40:09;;;;;;;6.20;3.58;;;13.50;93.10;;;;;;5029933;28;20386;-54
2022/04/26 08:42:46;;;;;;;6.20;4.28;;;13.40;96.00;;;;;;5029355;28;20041;-49
2022/04/26 08:45:17;;;;;;;3.95;3.40;;;13.70;95.00;;;;;;5029713;28;20029;-52
2022/04/26 08:50:59;;;;;;;3.88;3.53;;;14.20;91.70;;;;;;4995846;28;20082;-52
2022/04/26 08:53:26;;;;;;;4.22;3.83;;;14.20;90.90;;;;;;5029319;28;20017;-52
2022/04/26 08:55:54;;;;;;;4.28;3.88;;;13.90;91.30;;;;;;5029779;28;20036;-54
2022/04/26 08:58:21;;;;;;;6.55;3.42;;;13.90;92.80;;;;;;5029132;28;20018;-52
2022/04/26 09:01:08;;;;;;;3.55;3.25;;;14.10;93.00;;;;;;5029331;28;20409;-55
2022/04/26 09:03:34;;;;;;;;;;;14.60;93.90;;;;;;5029568;28;20540;-52
2022/04/26 09:06:15;;;;;;;8.00;4.13;;;14.90;89.70;;;;;;5036142;28;19909;-54
2022/04/26 09:08:42;;;;;;;4.85;3.65;;;15.20;89.60;;;;;;5035744;28;20438;-52
2022/04/26 09:11:24;;;;;;;6.47;3.70;;;15.30;89.80;;;;;;5052412;28;20025;-50
2022/04/26 09:13:50;;;;;;;3.63;3.33;;;15.20;87.70;;;;;;5027765;28;20401;-51
2022/04/26 09:16:18;;;;;;;4.65;3.60;;;15.40;91.30;;;;;;5049321;28;20021;-56
2022/04/26 09:18:56;;;;;;;5.30;3.85;;;15.60;88.40;;;;;;5047607;28;20028;-51
2022/04/26 09:21:26;;;;;;;4.03;3.63;;;15.60;90.80;;;;;;5046597;28;20144;-53
2022/04/26 09:23:54;;;;;;;4.18;3.75;;;15.50;87.80;;;;;;5048772;28;20021;-53
2022/04/26 09:26:20;;;;;;;3.95;3.47;;;15.70;91.30;;;;;;5044888;28;20022;-55
2022/04/26 09:28:50;;;;;;;3.67;3.30;;;15.90;88.60;;;;;;5028612;28;20083;-51
2022/04/26 09:31:26;;;;;;;5.00;3.28;;;16.00;83.20;;;;;;5043605;28;20132;-52
2022/04/26 09:33:53;;;;;;;;;;;16.00;81.20;;;;;;5029210;28;20524;-52
2022/04/26 09:36:20;;;;;;;3.10;2.80;;;16.00;79.60;;;;;;5014222;28;19909;-53
2022/04/26 09:39:07;;;;;;;4.22;3.08;;;16.10;79.20;;;;;;5033056;28;20260;-50
2022/04/26 09:41:33;;;;;;;3.13;2.80;;;16.20;82.30;;;;;;5032461;28;20100;-51
2022/04/26 09:44:07;;;;;;;5.35;2.15;;;16.50;79.30;;;;;;5032765;28;20439;-53
2022/04/26 09:46:49;;;;;;;2.92;2.72;;;16.70;80.90;;;;;;5033002;28;20052;-53
2022/04/26 09:49:21;;;;;;;3.92;2.47;;;17.00;78.80;;;;;;5034275;28;20114;-50
2022/04/26 09:51:49;;;;;;;3.38;3.05;;;17.30;83.90;;;;;;5052235;28;20439;-51
2022/04/26 09:54:15;;;;;;;5.72;2.88;;;17.20;75.40;;;;;;5034292;28;20032;-52
2022/04/26 09:56:44;;;;;;;3.75;2.90;;;17.10;77.80;;;;;;5052814;28;20037;-51
2022/04/26 09:59:14;;;;;;;5.25;3.42;;;17.00;74.70;;;;;;5051099;28;20025;-49
2022/04/26 10:01:47;;;;;;;3.38;3.08;;;16.60;75.30;;;;;;5012721;28;20032;-51
2022/04/26 10:04:21;;;;;;;5.88;3.15;;;16.70;76.10;;;;;;4997011;28;20026;-51
2022/04/26 10:06:50;;;;;;;3.85;2.88;;;16.70;75.70;;;;;;5032590;28;20555;-52
2022/04/26 10:09:16;;;;;;;3.58;3.00;;;16.40;78.00;;;;;;5032398;28;20071;-55
2022/04/26 10:11:42;;;;;;;4.65;3.45;;;16.10;75.10;;;;;;5014129;28;20432;-53
2022/04/26 10:14:09;;;;;;;3.05;2.67;;;16.20;74.40;;;;;;5032106;28;20797;-54
2022/04/26 10:16:36;;;;;;;5.15;3.03;;;16.30;74.30;;;;;;5032263;28;20020;-52
2022/04/26 10:19:07;;;;;;;4.15;2.97;;;16.60;76.40;;;;;;5048432;28;20036;-56
2022/04/26 10:21:35;;;;;;;4.50;2.92;;;16.90;74.40;;;;;;5051938;28;20527;-54
2022/04/26 10:24:04;;;;;;;3.38;3.05;;;16.80;74.20;;;;;;5051305;28;20844;-53
2022/04/26 10:26:34;;;;;;;3.50;3.00;;;17.00;73.00;;;;;;5044480;28;20029;-53
2022/04/26 10:29:02;;;;;;;3.47;3.10;;;17.20;73.90;;;;;;5044108;28;20033;-55
2022/04/26 10:31:40;;;;;;;3.40;2.88;;;17.40;73.70;;;;;;5031591;28;20562;-59
2022/04/26 10:34:17;;;;;;;3.47;2.78;;;17.50;72.20;;;;;;5031923;28;20163;-53
2022/04/26 10:36:44;;;;;;;4.80;3.15;;;17.40;73.20;;;;;;5032201;28;20025;-52
2022/04/26 10:39:09;;;;;;;4.07;3.40;;;17.30;72.00;;;;;;5032894;28;20037;-50
2022/04/26 10:41:37;;;;;;;3.70;3.38;;;17.20;71.20;;;;;;5051276;28;20045;-56
2022/04/26 10:44:15;;;;;;;3.67;3.08;;;17.10;73.60;;;;;;5051651;28;20048;-53
2022/04/26 10:46:41;;;;;;;3.78;3.47;;;17.10;74.60;;;;;;5050954;28;20075;-53
2022/04/26 10:49:25;;;;;;;3.78;3.22;;;17.00;75.00;;;;;;5051636;28;20572;-56
2022/04/26 10:51:51;;;;;;;3.75;3.30;;;17.00;72.30;;;;;;5033293;28;20171;-54
2022/04/26 10:54:51;;;;;;;5.50;2.83;;;16.90;72.50;;;;;;5051474;28;20021;-55
2022/04/26 10:57:41;;;;;;;3.33;3.03;;;17.20;73.00;;;;;;5051431;28;20017;-54
2022/04/26 11:00:10;;;;;;;4.57;3.08;;;17.50;74.90;;;;;;5051321;28;20021;-54
2022/04/26 11:02:39;;;;;;;4.97;3.50;;;17.60;73.00;;;;;;5051068;28;20108;-51
2022/04/26 11:05:10;;;;;;;2.60;2.40;;;17.70;70.60;;;;;;5051250;28;20020;-53
2022/04/26 11:07:38;;;;;;;5.53;3.65;;;17.80;72.10;;;;;;5051571;28;20488;-51
2022/04/26 11:10:05;;;;;;;4.72;4.18;;;17.70;69.70;;;;;;5026896;28;20117;-50
2022/04/26 11:12:33;;;;;;;4.50;3.65;;;17.20;69.90;;;;;;5036769;28;20063;-53
2022/04/26 11:15:05;;;;;;;4.28;3.92;;;16.80;69.40;;;;;;5050862;28;20104;-53
2022/04/26 11:17:31;;;;;;;5.45;3.78;;;16.40;73.20;;;;;;5050911;28;20032;-53
2022/04/26 11:20:14;;;;;;;5.20;3.20;;;16.20;72.50;;;;;;5051156;28;20049;-51
2022/04/26 11:22:57;;;;;;;4.85;3.78;;;16.30;74.20;;;;;;5031538;28;20336;-51
2022/04/26 11:28:10;;;;;;;;;;;16.40;74.50;;;;;;5031084;28;20126;-51
2022/04/26 11:30:37;;;;;;;;;;;16.50;73.80;;;;;;5031360;28;19935;-53
2022/04/26 11:33:08;;;;;;;3.40;3.10;;;16.50;72.80;;;;;;5030333;28;20327;-53
2022/04/26 11:35:34;;;;;;;3.50;2.88;;;16.70;74.80;;;;;;5044134;28;20048;-53
2022/04/26 11:38:08;;;;;;;3.70;3.22;;;17.10;79.10;;;;;;5050605;28;20544;-51
2022/04/26 11:41:03;;;;;;;5.78;4.05;;;17.50;73.60;;;;;;5050041;28;20040;-55
2022/04/26 11:43:35;;;;;;;4.18;3.78;;;17.80;71.30;;;;;;5030162;28;20033;-54
2022/04/26 11:46:02;;;;;;;4.30;3.90;;;17.80;68.80;;;;;;5049040;28;20033;-50
2022/04/26 11:48:29;;;;;;;5.95;3.33;;;17.70;69.50;;;;;;5048359;28;20037;-53
2022/04/26 11:50:57;;;;;;;4.07;3.50;;;17.40;70.10;;;;;;5030715;28;20083;-48
2022/04/26 11:53:28;;;;;;;4.20;3.80;;;17.00;69.40;;;;;;5030101;28;20049;-53
2022/04/26 11:56:00;;;;;;;3.88;3.58;;;16.80;68.30;;;;;;5048691;28;20025;-50
2022/04/26 11:58:39;;;;;;;4.57;3.90;;;16.40;70.20;;;;;;5049446;28;20025;-52
2022/04/26 12:01:13;;;;;;;4.65;4.25;;;16.10;68.70;;;;;;5049415;28;20400;-54
2022/04/26 12:03:53;;;;;;;5.97;3.38;;;15.70;70.20;;;;;;5049830;28;20505;-55
2022/04/26 12:06:25;;;;;;;4.53;3.58;;;15.70;72.50;;;;;;5030686;28;20497;-54
2022/04/26 12:08:55;;;;;;;4.43;4.05;;;16.00;74.10;;;;;;5050083;28;20033;-54
2022/04/26 12:11:22;;;;;;;5.07;3.60;;;16.10;71.80;;;;;;5049146;28;20559;-50
2022/04/26 12:14:11;;;;;;;3.72;3.10;;;16.30;71.40;;;;;;5049575;28;20074;-53
2022/04/26 12:16:44;;;;;;;6.68;3.38;;;16.50;72.50;;;;;;5026511;28;20068;-52
2022/04/26 12:19:10;;;;;;;6.80;3.55;;;16.60;75.70;;;;;;5029806;28;20151;-53
2022/04/26 12:21:45;;;;;;;4.50;3.53;;;16.80;70.60;;;;;;5015225;28;20036;-56
2022/04/26 12:24:16;;;;;;;3.93;3.40;;;17.00;74.80;;;;;;5040072;28;20021;-50
2022/04/26 12:26:54;;;;;;;6.10;4.80;;;17.30;74.00;;;;;;5045502;28;20146;-52
2022/04/26 12:29:20;;;;;;;6.65;3.28;;;17.70;69.70;;;;;;5034136;28;20032;-52
2022/04/26 12:31:48;;;;;;;7.22;3.63;;;17.80;68.40;;;;;;5031688;28;20029;-51
2022/04/26 12:34:22;;;;;;;3.88;3.42;;;18.00;68.00;;;;;;5030815;28;20057;-52
2022/04/26 12:37:01;;;;;;;4.47;3.25;;;17.80;66.20;;;;;;5031565;28;20079;-49
2022/04/26 12:39:44;;;;;;;7.65;4.05;;;17.70;67.20;;;;;;5032635;28;20491;-56
2022/04/26 12:42:27;;;;;;;5.25;4.05;;;17.70;66.10;;;;;;5034771;28;20036;-54
2022/04/26 12:44:55;;;;;;;4.45;4.05;;;17.30;66.10;;;;;;5044317;28;20377;-57
2022/04/26 12:53:01;;;;;;;3.47;3.17;;;17.50;67.60;;;;;;5033944;28;20048;-51
2022/04/26 12:55:38;;;;;;;5.05;2.90;;;17.80;69.50;;;;;;5037988;28;20100;-51
2022/04/26 12:58:12;;;;;;;3.83;3.42;;;18.10;66.70;;;;;;5035778;28;20068;-53
2022/04/26 13:00:42;;;;;;;8.60;2.92;;;18.20;66.20;;;;;;5032617;28;20029;-50
2022/04/26 13:03:09;;;;;;;3.38;3.08;;;18.20;65.00;;;;;;5035598;28;20025;-53
2022/04/26 13:05:40;;;;;;;3.88;3.28;;;18.20;64.80;;;;;;5033688;28;20392;-54
2022/04/26 13:08:07;;;;;;;3.83;3.10;;;18.40;64.90;;;;;;5036225;28;20026;-52
2022/04/26 13:10:33;;;;;;;2.88;2.58;;;18.80;69.80;;;;;;5038966;28;20020;-49
2022/04/26 13:12:58;;;;;;;3.33;2.88;;;19.10;63.70;;;;;;5029137;28;20030;-50
2022/04/26 13:15:24;;;;;;;5.97;3.40;;;19.20;63.20;;;;;;5029708;28;20022;-50
2022/04/26 13:17:50;;;;;;;6.60;3.28;;;19.30;63.10;;;;;;5020358;28;20033;-52
2022/04/26 13:20:16;;;;;;;3.13;2.70;;;19.50;63.30;;;;;;5029381;28;20120;-51
2022/04/26 13:22:41;;;;;;;3.67;3.35;;;19.30;61.30;;;;;;5028858;28;20029;-53
2022/04/26 13:25:08;;;;;;;4.40;3.00;;;18.90;61.50;;;;;;5042640;28;20041;-50
2022/04/26 13:27:35;;;;;;;4.65;3.85;;;18.60;62.60;;;;;;5035403;28;20413;-53
2022/04/26 13:30:02;;;;;;;3.85;3.55;;;18.70;62.50;;;;;;5023084;28;20568;-53
2022/04/26 13:32:30;;;;;;;4.32;3.80;;;18.60;61.30;;;;;;5025084;28;20090;-56
2022/04/26 13:34:59;;;;;;;4.00;3.70;;;18.00;62.60;;;;;;5030273;28;20018;-54
2022/04/26 13:37:26;;;;;;;5.57;3.85;;;17.70;64.70;;;;;;5011570;28;20108;-53
2022/04/26 13:39:53;;;;;;;5.28;3.75;;;17.60;65.50;;;;;;5028609;28;20128;-50
2022/04/26 13:42:19;;;;;;;6.47;4.10;;;17.60;66.30;;;;;;5042925;28;20028;-52
2022/04/26 13:44:45;;;;;;;4.13;3.72;;;17.80;65.80;;;;;;5044998;28;20028;-49
2022/04/26 13:47:11;;;;;;;3.65;3.30;;;18.10;66.80;;;;;;5029054;28;20394;-51
2022/04/26 13:49:39;;;;;;;5.63;3.55;;;18.40;64.10;;;;;;5030586;28;20056;-51
2022/04/26 13:52:06;;;;;;;7.75;3.28;;;18.50;61.20;;;;;;5028787;28;20148;-49
2022/04/26 13:54:33;;;;;;;5.35;3.70;;;18.50;63.50;;;;;;5035581;28;20021;-50
2022/04/26 13:56:59;;;;;;;4.78;4.22;;;18.50;63.50;;;;;;5035704;28;20079;-52
2022/04/26 13:59:25;;;;;;;4.43;3.90;;;18.30;60.70;;;;;;5029113;28;20029;-50
2022/04/26 14:01:52;;;;;;;5.13;4.30;;;17.70;63.10;;;;;;5041035;28;20392;-52
2022/04/26 14:04:19;;;;;;;4.45;3.95;;;17.70;64.90;;;;;;5036639;28;20566;-50
2022/04/26 14:06:45;;;;;;;4.45;4.05;;;17.70;63.40;;;;;;5032606;28;20420;-54
2022/04/26 14:09:10;;;;;;;4.15;3.72;;;17.50;64.40;;;;;;5028805;28;20388;-54
2022/04/26 14:11:36;;;;;;;4.30;3.53;;;17.30;62.00;;;;;;5028567;28;20029;-54
2022/04/26 14:22:14;;;;;;;4.88;3.95;;;17.50;62.00;;;;;;5051564;28;20090;-53
2022/04/26 14:24:40;;;;;;;5.15;3.92;;;17.60;64.50;;;;;;5038680;28;20038;-51
2022/04/26 14:27:06;;;;;;;4.45;3.85;;;17.60;63.90;;;;;;5032819;28;20021;-54
2022/04/26 14:29:33;;;;;;;27.52;5.88;;;17.40;64.70;;;;;;5033532;28;20037;-54
2022/04/26 14:31:59;;;;;;;7.90;3.65;;;17.40;64.90;;;;;;5031770;28;20101;-54
2022/04/26 14:34:24;;;;;;;4.53;3.95;;;17.70;66.40;;;;;;5047027;28;20127;-55
2022/04/26 14:36:50;;;;;;;6.97;4.70;;;17.80;64.90;;;;;;5032159;28;20185;-52
2022/04/26 14:39:16;;;;;;;5.05;4.55;;;17.40;65.30;;;;;;5041891;28;20052;-52
2022/04/26 14:41:44;;;;;;;4.13;3.72;;;17.20;64.20;;;;;;5051553;28;20550;-48
2022/04/26 14:44:10;;;;;;;6.53;4.07;;;16.90;65.80;;;;;;5042433;28;20327;-51
2022/04/26 14:46:36;;;;;;;4.13;3.72;;;17.00;66.30;;;;;;5036927;28;20025;-56
2022/04/26 14:49:06;;;;;;;4.70;4.22;;;17.20;65.80;;;;;;5039186;28;20044;-52
2022/04/26 14:51:32;;;;;;;4.90;4.03;;;17.20;64.30;;;;;;5031527;28;20053;-52
2022/04/26 14:53:58;;;;;;;5.50;4.55;;;16.90;65.40;;;;;;5037461;28;20094;-53
2022/04/26 14:56:24;;;;;;;6.00;4.18;;;16.60;65.50;;;;;;5047112;28;20108;-50
2022/04/26 14:58:50;;;;;;;4.72;4.20;;;16.50;65.90;;;;;;5033787;28;20049;-49
2022/04/26 15:01:16;;;;;;;4.68;4.20;;;16.30;66.10;;;;;;5047510;28;20036;-54
2022/04/26 15:03:44;;;;;;;7.20;3.28;;;16.30;66.00;;;;;;5051532;28;20055;-52
2022/04/26 15:06:10;;;;;;;5.88;4.28;;;16.40;67.30;;;;;;5041662;28;20109;-50
2022/04/26 15:11:20;;;;;;;4.50;3.70;;;16.60;67.80;;;;;;5031293;28;20032;-50
2022/04/26 15:16:39;;;;;;;6.25;3.35;;;16.90;67.50;;;;;;5031433;28;20083;-53
2022/04/26 15:19:05;;;;;;;4.57;3.58;;;16.90;65.90;;;;;;5031716;28;20069;-52
2022/04/26 15:21:31;;;;;;;3.70;3.40;;;17.00;68.00;;;;;;5032063;28;20493;-51
2022/04/26 15:23:57;;;;;;;5.25;3.67;;;17.20;66.70;;;;;;5031675;28;20040;-51
2022/04/26 15:26:24;;;;;;;4.25;3.85;;;17.30;66.60;;;;;;5036265;28;20495;-53
2022/04/26 15:28:50;;;;;;;3.80;3.50;;;17.30;65.20;;;;;;5040676;28;20524;-50
2022/04/26 15:31:18;;;;;;;5.03;3.90;;;17.40;65.90;;;;;;5050610;28;20032;-50
2022/04/26 15:33:46;;;;;;;4.50;4.05;;;17.40;64.70;;;;;;5049933;28;20025;-53
2022/04/26 15:36:12;;;;;;;6.57;4.57;;;17.30;65.20;;;;;;5033444;28;20040;-51
2022/04/26 15:38:39;;;;;;;8.18;4.35;;;17.00;65.20;;;;;;5050115;28;20025;-52
2022/04/26 15:41:07;;;;;;;5.57;3.85;;;16.80;65.80;;;;;;5050868;28;20025;-50
2022/04/26 15:43:34;;;;;;;5.28;4.00;;;16.70;66.80;;;;;;5049736;28;20024;-47
2022/04/26 15:46:06;;;;;;;6.43;3.47;;;16.70;66.80;;;;;;5050928;28;20039;-49
2022/04/26 15:48:34;;;;;;;3.88;3.55;;;16.70;67.60;;;;;;5039152;28;20038;-51
2022/04/26 15:51:00;;;;;;;3.60;3.13;;;16.40;65.60;;;;;;5043656;28;20556;-49
2022/04/26 15:53:25;;;;;;;5.03;3.90;;;16.30;65.30;;;;;;5041388;28;20028;-49
2022/04/26 15:55:51;;;;;;;5.35;3.75;;;16.10;65.00;;;;;;5036204;28;20112;-52
2022/04/26 15:58:17;;;;;;;4.43;3.35;;;16.00;65.00;;;;;;5051098;28;20092;-50
2022/04/26 16:00:44;;;;;;;4.53;3.63;;;15.80;64.60;;;;;;5050061;28;20087;-51
2022/04/26 16:03:09;;;;;;;4.20;3.60;;;15.70;63.70;;;;;;5050088;28;20020;-49
2022/04/26 16:05:36;;;;;;;5.15;3.65;;;15.70;64.40;;;;;;5049032;28;20374;-50
2022/04/26 16:08:03;;;;;;;4.05;3.75;;;15.70;65.90;;;;;;5050161;28;20041;-52
2022/04/26 16:21:25;;;;;;;4.30;3.78;;;15.50;69.60;;;;;;5046385;28;20044;-49
2022/04/26 16:23:54;;;;;;;6.55;5.07;;;15.30;69.70;;;;;;5030083;28;20025;-51
2022/04/26 16:26:22;;;;;;;5.88;4.05;;;15.30;71.10;;;;;;5033874;28;20107;-49
2022/04/26 16:28:48;;;;;;;4.05;3.63;;;15.20;69.60;;;;;;5029992;28;20405;-49
2022/04/26 16:31:15;;;;;;;4.30;3.90;;;15.20;69.60;;;;;;5029918;28;20405;-54
2022/04/26 16:33:41;;;;;;;8.40;4.63;;;15.10;69.30;;;;;;5014117;28;20092;-49
2022/04/26 16:36:08;;;;;;;7.80;4.10;;;15.00;69.20;;;;;;5028249;28;20045;-51
2022/04/26 16:38:35;;;;;;;5.70;4.47;;;14.90;70.90;;;;;;5030200;28;20036;-51
2022/04/26 16:41:03;;;;;;;14.60;4.53;;;14.90;72.40;;;;;;5029938;28;20389;-51
2022/04/26 16:43:29;;;;;;;5.68;4.28;;;14.80;73.90;;;;;;5010993;28;21384;-51
2022/04/26 16:45:56;;;;;;;5.18;3.60;;;14.80;74.50;;;;;;5029710;28;20031;-53
2022/04/26 16:48:22;;;;;;;4.72;4.07;;;14.80;75.20;;;;;;5029784;28;20044;-52
2022/04/26 16:50:48;;;;;;;4.38;3.75;;;14.80;75.40;;;;;;5029650;28;20017;-54
2022/04/26 16:53:14;;;;;;;5.90;3.72;;;14.70;76.10;;;;;;5029705;28;20022;-51
2022/04/26 16:55:40;;;;;;;4.22;3.08;;;14.70;76.20;;;;;;5029964;28;20041;-48
2022/04/26 16:58:06;;;;;;;4.15;3.75;;;14.70;75.50;;;;;;5029748;28;20030;-52
2022/04/26 17:00:31;;;;;;;7.45;3.78;;;14.70;76.20;;;;;;5029800;28;20040;-50
2022/04/26 17:02:57;;;;;;;5.03;4.10;;;14.60;76.10;;;;;;5035809;28;20031;-51
2022/04/26 17:05:23;;;;;;;4.15;3.22;;;14.50;76.70;;;;;;5030375;28;21345;-49
2022/04/26 17:07:50;;;;;;;3.95;3.15;;;14.50;77.40;;;;;;5049205;28;20029;-49
2022/04/26 17:10:17;;;;;;;5.82;3.60;;;14.40;77.00;;;;;;5030284;28;20021;-51
2022/04/26 17:12:44;;;;;;;4.00;3.42;;;14.30;78.20;;;;;;5025554;28;20053;-51
2022/04/26 17:15:10;;;;;;;4.93;3.50;;;14.30;78.20;;;;;;5027188;28;20029;-49